Time;durP1;ratioP1;P1;durP2;ratioP2;P2;SDS_P1;SDS_P2;PMS_P1;PMS_P2;Temp;Humidity;BMP_temperature;BMP_pressure;BME280_temperature;BME280_humidity;BME280_pressure;Samples;Min_cycle;Max_cycle;Signal;HPM_P1;HPM_P2
2022/11/28 00:00:00;;;;;;;8.77;8.07;;;6.80;99.90;;;;;;4992299;28;20218;-70
2022/11/28 00:02:26;;;;;;;8.37;7.63;;;6.80;99.90;;;;;;4993127;28;20184;-69
2022/11/28 00:04:51;;;;;;;8.87;8.17;;;6.80;99.90;;;;;;4975774;28;20216;-70
2022/11/28 00:07:17;;;;;;;8.80;8.20;;;6.80;99.90;;;;;;4975354;28;20208;-70
2022/11/28 00:09:43;;;;;;;8.63;7.93;;;6.80;99.90;;;;;;4990706;28;20184;-69
2022/11/28 00:12:08;;;;;;;7.93;7.23;;;6.80;99.90;;;;;;4991790;28;20189;-69
2022/11/28 00:14:34;;;;;;;8.80;8.20;;;6.80;99.90;;;;;;4991649;28;20200;-69
2022/11/28 00:16:59;;;;;;;8.53;7.77;;;6.80;99.90;;;;;;4992324;28;20205;-69
2022/11/28 00:19:25;;;;;;;8.80;7.47;;;6.80;99.90;;;;;;4992882;28;20349;-69
2022/11/28 00:21:51;;;;;;;8.93;7.30;;;6.80;99.90;;;;;;4992349;28;20550;-69
2022/11/28 00:24:17;;;;;;;7.23;6.67;;;6.80;99.90;;;;;;4992934;28;20172;-70
2022/11/28 00:26:43;;;;;;;8.20;7.60;;;6.80;99.90;;;;;;4992235;28;20213;-69
2022/11/28 00:29:09;;;;;;;8.53;7.93;;;6.80;99.90;;;;;;4992585;28;20243;-70
2022/11/28 00:31:41;;;;;;;7.43;6.93;;;6.80;99.90;;;;;;4992322;28;20686;-69
2022/11/28 00:34:10;;;;;;;8.57;7.97;;;6.80;99.90;;;;;;4992625;28;20279;-70
2022/11/28 00:36:35;;;;;;;9.93;8.10;;;6.80;99.90;;;;;;4991613;28;20196;-70
2022/11/28 00:39:01;;;;;;;9.03;8.30;;;6.70;99.90;;;;;;4992658;28;20184;-70
2022/11/28 00:41:29;;;;;;;8.90;8.03;;;6.70;99.90;;;;;;4991836;28;20251;-69
2022/11/28 00:43:55;;;;;;;9.27;8.17;;;6.70;99.90;;;;;;4992713;28;20670;-69
2022/11/28 00:46:22;;;;;;;9.37;8.57;;;6.70;99.90;;;;;;4992267;28;20184;-69
2022/11/28 00:48:48;;;;;;;8.50;7.70;;;6.80;99.90;;;;;;4992450;28;20180;-69
2022/11/28 00:51:19;;;;;;;9.77;8.80;;;6.80;99.90;;;;;;4991763;28;20172;-69
2022/11/28 00:53:49;;;;;;;11.33;9.13;;;6.70;99.90;;;;;;4992192;28;20212;-69
2022/11/28 00:56:18;;;;;;;8.70;7.90;;;6.70;99.90;;;;;;4992194;28;20173;-69
2022/11/28 00:58:44;;;;;;;8.13;7.50;;;6.70;99.90;;;;;;4992285;28;20169;-69
2022/11/28 01:01:24;;;;;;;8.43;7.80;;;6.70;99.90;;;;;;4991474;28;20199;-69
2022/11/28 01:03:52;;;;;;;12.50;8.40;;;6.70;99.90;;;;;;4992266;28;20582;-69
2022/11/28 01:06:45;;;;;;;9.60;8.37;;;6.70;99.90;;;;;;4996705;28;20173;-69
2022/11/28 01:09:17;;;;;;;8.13;7.53;;;6.70;99.90;;;;;;5004196;28;20197;-69
2022/11/28 01:11:43;;;;;;;9.27;8.37;;;6.70;99.90;;;;;;5006025;28;20211;-69
2022/11/28 01:14:10;;;;;;;11.40;8.40;;;6.70;99.90;;;;;;4994978;28;20204;-69
2022/11/28 01:16:36;;;;;;;9.30;8.23;;;6.70;99.90;;;;;;4992961;28;20553;-69
2022/11/28 01:19:02;;;;;;;9.20;8.40;;;6.70;99.90;;;;;;4993274;28;20172;-70
2022/11/28 01:21:27;;;;;;;9.40;8.43;;;6.60;99.90;;;;;;4992916;28;20181;-70
2022/11/28 01:23:53;;;;;;;7.97;7.43;;;6.70;99.90;;;;;;4992798;28;20180;-69
2022/11/28 01:26:21;;;;;;;8.07;7.47;;;6.70;99.90;;;;;;4992057;28;20847;-69
2022/11/28 01:28:48;;;;;;;8.70;8.03;;;6.70;99.90;;;;;;5016045;23;20576;-67
2022/11/28 01:31:16;;;;;;;8.87;8.17;;;6.60;99.90;;;;;;4991488;28;20247;-67
2022/11/28 01:33:42;;;;;;;8.87;7.97;;;6.60;99.90;;;;;;4991698;28;20705;-67
2022/11/28 01:36:10;;;;;;;10.00;8.67;;;6.60;99.90;;;;;;4990523;28;20231;-67
2022/11/28 01:38:35;;;;;;;10.13;9.17;;;6.60;99.90;;;;;;4991925;28;20455;-68
2022/11/28 01:41:01;;;;;;;8.47;7.87;;;6.60;99.90;;;;;;4991882;28;20203;-68
2022/11/28 01:43:27;;;;;;;9.17;7.87;;;6.60;99.90;;;;;;4991820;28;20181;-67
2022/11/28 01:45:53;;;;;;;10.33;8.47;;;6.60;99.90;;;;;;4991732;28;20245;-67
2022/11/28 01:48:26;;;;;;;8.90;7.93;;;6.60;99.90;;;;;;4991700;28;20231;-67
2022/11/28 01:50:57;;;;;;;9.27;8.47;;;6.60;99.90;;;;;;4991537;28;20196;-67
2022/11/28 01:53:25;;;;;;;8.17;7.57;;;6.70;99.90;;;;;;4991534;28;20188;-67
2022/11/28 01:56:00;;;;;;;9.13;8.17;;;6.70;99.90;;;;;;4991647;28;20589;-67
2022/11/28 01:58:27;;;;;;;9.60;8.70;;;6.70;99.90;;;;;;4991720;28;20619;-66
2022/11/28 02:00:52;;;;;;;9.20;8.33;;;6.70;99.90;;;;;;4991547;28;20228;-67
2022/11/28 02:03:28;;;;;;;9.07;8.23;;;6.70;99.90;;;;;;4991524;28;20642;-68
2022/11/28 02:05:55;;;;;;;8.87;7.80;;;6.70;99.90;;;;;;4991699;28;20226;-67
2022/11/28 02:08:21;;;;;;;9.47;8.57;;;6.70;99.90;;;;;;4991352;28;20217;-67
2022/11/28 02:10:55;;;;;;;9.23;8.53;;;6.70;99.90;;;;;;4991502;28;20252;-67
2022/11/28 02:13:51;;;;;;;8.90;8.23;;;6.70;99.90;;;;;;4993622;28;20574;-67
2022/11/28 02:16:22;;;;;;;9.57;8.73;;;6.70;99.90;;;;;;4995159;28;20181;-66
2022/11/28 02:18:58;;;;;;;12.70;8.70;;;6.70;99.90;;;;;;4975674;28;20205;-67
2022/11/28 02:21:41;;;;;;;9.50;8.40;;;6.70;99.90;;;;;;4976272;28;20570;-67
2022/11/28 02:24:51;;;;;;;9.67;8.57;;;6.70;99.90;;;;;;4994977;28;20612;-67
2022/11/28 02:27:45;;;;;;;9.07;8.37;;;6.70;99.90;;;;;;4953399;28;20218;-68
2022/11/28 02:30:20;;;;;;;11.33;8.90;;;6.70;99.90;;;;;;4953549;29;20184;-68
2022/11/28 02:33:00;;;;;;;9.30;8.40;;;6.70;99.90;;;;;;4984624;28;20188;-67
2022/11/28 02:36:02;;;;;;;10.70;8.63;;;6.70;99.90;;;;;;4994801;28;20192;-67
2022/11/28 02:38:43;;;;;;;8.40;7.70;;;6.70;99.90;;;;;;4994901;28;20220;-68
2022/11/28 02:41:27;;;;;;;9.13;8.17;;;6.70;99.90;;;;;;4994652;28;20187;-67
2022/11/28 02:44:04;;;;;;;11.50;8.53;;;6.80;99.90;;;;;;4975403;28;20200;-67
2022/11/28 02:46:58;;;;;;;9.83;8.93;;;6.80;99.90;;;;;;4975908;28;20178;-68
2022/11/28 02:49:39;;;;;;;10.60;9.60;;;6.70;99.90;;;;;;4990492;28;20704;-67
2022/11/28 02:52:18;;;;;;;8.57;7.77;;;6.70;99.90;;;;;;4994459;28;20243;-67
2022/11/28 02:54:45;;;;;;;10.50;8.37;;;6.70;99.90;;;;;;4994778;28;20562;-68
2022/11/28 02:57:10;;;;;;;10.87;9.33;;;6.70;99.90;;;;;;4994146;28;20853;-67
2022/11/28 02:59:36;;;;;;;9.90;8.90;;;6.80;99.90;;;;;;4994185;28;20255;-67
2022/11/28 03:02:03;;;;;;;8.63;8.03;;;6.80;99.90;;;;;;4993964;28;20244;-67
2022/11/28 03:04:50;;;;;;;9.20;8.30;;;6.80;99.90;;;;;;4994095;28;20172;-67
2022/11/28 03:07:35;;;;;;;9.00;8.10;;;6.80;99.90;;;;;;4993957;28;20674;-67
2022/11/28 03:10:31;;;;;;;9.70;8.90;;;6.80;99.90;;;;;;4994094;28;20678;-67
2022/11/28 03:13:26;;;;;;;8.77;8.13;;;6.80;99.90;;;;;;4994130;28;20177;-67
2022/11/28 03:16:17;;;;;;;8.60;8.00;;;6.80;99.90;;;;;;4986628;28;20192;-68
2022/11/28 03:19:21;;;;;;;8.53;7.77;;;6.70;99.90;;;;;;4993718;28;20196;-67
2022/11/28 03:21:57;;;;;;;8.10;7.30;;;6.70;99.90;;;;;;4993828;28;20192;-68
2022/11/28 03:24:32;;;;;;;10.40;8.90;;;6.70;99.90;;;;;;4993690;28;20173;-68
2022/11/28 03:27:11;;;;;;;9.53;8.67;;;6.70;99.90;;;;;;4993591;28;20196;-68
2022/11/28 03:29:43;;;;;;;8.87;8.27;;;6.70;99.90;;;;;;4993602;28;20172;-68
2022/11/28 03:32:17;;;;;;;9.20;8.30;;;6.70;99.90;;;;;;4993682;28;20200;-68
2022/11/28 03:34:46;;;;;;;9.60;8.80;;;6.70;99.90;;;;;;4993965;28;20296;-68
2022/11/28 03:37:29;;;;;;;8.37;7.77;;;6.80;99.90;;;;;;4993667;28;20280;-72
2022/11/28 03:39:59;;;;;;;9.13;8.47;;;6.70;99.90;;;;;;4997934;28;20200;-70
2022/11/28 03:42:28;;;;;;;12.57;9.17;;;6.70;99.90;;;;;;4996544;28;20177;-71
2022/11/28 03:45:14;;;;;;;8.97;8.10;;;6.70;99.90;;;;;;4999256;28;20173;-71
2022/11/28 03:47:47;;;;;;;10.43;9.30;;;6.70;99.90;;;;;;4998598;28;20547;-71
2022/11/28 03:50:19;;;;;;;9.70;8.80;;;6.70;99.90;;;;;;4998568;28;20642;-72
2022/11/28 03:53:08;;;;;;;8.90;8.20;;;6.70;99.90;;;;;;4999212;28;20177;-69
2022/11/28 03:55:48;;;;;;;9.60;8.83;;;6.70;99.90;;;;;;4997593;28;20205;-72
2022/11/28 03:58:37;;;;;;;10.17;9.10;;;6.70;99.90;;;;;;4998469;28;20288;-70
2022/11/28 04:01:08;;;;;;;9.67;8.87;;;6.80;99.90;;;;;;4998515;28;20166;-70
2022/11/28 04:03:51;;;;;;;10.57;9.73;;;6.80;99.90;;;;;;4997034;28;20203;-72
2022/11/28 04:06:23;;;;;;;9.77;8.87;;;6.70;99.90;;;;;;4998237;28;20173;-71
2022/11/28 04:09:00;;;;;;;9.97;8.97;;;6.70;99.90;;;;;;4998127;28;20201;-71
2022/11/28 04:11:35;;;;;;;9.07;8.13;;;6.70;99.90;;;;;;4996283;28;20181;-71
2022/11/28 04:14:30;;;;;;;8.73;8.00;;;6.70;99.90;;;;;;4994587;28;20276;-70
2022/11/28 04:17:02;;;;;;;10.50;8.67;;;6.60;99.90;;;;;;4994704;28;20184;-71
2022/11/28 04:19:40;;;;;;;8.97;8.07;;;6.60;99.90;;;;;;4996960;28;20282;-72
2022/11/28 04:22:18;;;;;;;10.23;9.27;;;6.60;99.90;;;;;;4996534;28;20188;-72
2022/11/28 04:24:52;;;;;;;8.80;8.10;;;6.50;99.90;;;;;;4997893;28;20188;-71
2022/11/28 04:27:25;;;;;;;10.13;9.20;;;6.50;99.90;;;;;;4996857;28;20200;-71
2022/11/28 04:29:55;;;;;;;10.10;9.20;;;6.50;99.90;;;;;;4994559;28;20274;-72
2022/11/28 04:32:23;;;;;;;9.50;8.57;;;6.50;99.90;;;;;;4995702;28;20652;-72
2022/11/28 04:34:54;;;;;;;9.90;8.97;;;6.50;99.90;;;;;;4997378;28;20204;-71
2022/11/28 04:37:22;;;;;;;10.97;9.57;;;6.50;99.90;;;;;;4995930;28;20212;-73
2022/11/28 04:39:49;;;;;;;9.93;8.93;;;6.50;99.90;;;;;;4997100;28;20528;-70
2022/11/28 04:42:23;;;;;;;10.00;9.20;;;6.50;99.90;;;;;;4996887;28;20169;-71
2022/11/28 04:45:07;;;;;;;9.63;8.73;;;6.50;99.90;;;;;;4997436;28;20565;-70
2022/11/28 04:47:33;;;;;;;10.20;8.80;;;6.50;99.90;;;;;;4996502;28;20200;-70
2022/11/28 04:49:58;;;;;;;10.07;9.00;;;6.50;99.90;;;;;;4996457;28;20191;-68
2022/11/28 04:52:49;;;;;;;10.93;9.83;;;6.50;99.90;;;;;;4993793;28;20541;-67
2022/11/28 04:55:23;;;;;;;10.60;9.63;;;6.50;99.90;;;;;;4993765;28;20197;-67
2022/11/28 04:57:53;;;;;;;9.80;9.00;;;6.50;99.90;;;;;;4991884;28;20199;-67
2022/11/28 05:00:20;;;;;;;10.20;9.17;;;6.50;99.90;;;;;;4991952;28;20241;-66
2022/11/28 05:02:50;;;;;;;10.03;8.87;;;6.50;99.90;;;;;;4992017;28;20177;-67
2022/11/28 05:05:18;;;;;;;11.00;10.13;;;6.50;99.90;;;;;;4992291;28;20172;-67
2022/11/28 05:07:44;;;;;;;10.00;9.13;;;6.50;99.90;;;;;;4991801;28;20193;-67
2022/11/28 05:10:11;;;;;;;12.13;10.93;;;6.50;99.90;;;;;;4991713;28;20177;-67
2022/11/28 05:12:37;;;;;;;11.97;10.90;;;6.50;99.90;;;;;;4991950;28;20188;-67
2022/11/28 05:15:04;;;;;;;10.87;9.93;;;6.50;99.90;;;;;;4992168;28;20208;-66
2022/11/28 05:17:29;;;;;;;9.53;8.63;;;6.50;99.90;;;;;;4991709;28;20199;-67
2022/11/28 05:19:55;;;;;;;10.30;9.40;;;6.50;99.90;;;;;;4991875;28;20177;-67
2022/11/28 05:22:21;;;;;;;11.47;10.47;;;6.50;99.90;;;;;;4992189;28;20192;-67
2022/11/28 05:24:46;;;;;;;12.77;9.60;;;6.50;99.90;;;;;;4990773;28;20204;-67
2022/11/28 05:27:12;;;;;;;10.73;9.67;;;6.50;99.90;;;;;;4991816;28;20239;-67
2022/11/28 05:29:42;;;;;;;11.13;9.00;;;6.50;99.90;;;;;;4991788;28;20177;-67
2022/11/28 05:32:08;;;;;;;15.97;11.07;;;6.50;99.90;;;;;;4991844;28;20177;-67
2022/11/28 05:34:34;;;;;;;11.10;10.10;;;6.50;99.90;;;;;;4991313;28;20240;-67
2022/11/28 05:37:00;;;;;;;10.63;9.13;;;6.50;99.90;;;;;;4991358;28;20196;-66
2022/11/28 05:39:25;;;;;;;9.60;8.87;;;6.50;99.90;;;;;;4991841;28;20173;-67
2022/11/28 05:41:53;;;;;;;10.20;9.20;;;6.50;99.90;;;;;;4991786;28;20165;-67
2022/11/28 05:44:19;;;;;;;10.77;9.77;;;6.60;99.90;;;;;;4992185;28;20268;-67
2022/11/28 05:46:44;;;;;;;10.80;9.40;;;6.60;99.90;;;;;;4991706;28;20273;-67
2022/11/28 05:49:10;;;;;;;10.87;9.97;;;6.60;99.90;;;;;;4995752;28;20185;-67
2022/11/28 05:51:36;;;;;;;9.60;8.80;;;6.60;99.90;;;;;;4995596;28;20173;-67
2022/11/28 05:54:01;;;;;;;9.37;8.47;;;6.60;99.90;;;;;;4995360;28;20291;-67
2022/11/28 05:56:27;;;;;;;11.53;10.53;;;6.60;99.90;;;;;;4995853;28;20240;-67
2022/11/28 05:58:53;;;;;;;12.70;9.60;;;6.60;99.90;;;;;;4995484;28;20609;-67
2022/11/28 06:01:21;;;;;;;11.80;9.50;;;6.50;99.90;;;;;;4995254;28;20176;-67
2022/11/28 06:03:47;;;;;;;11.17;10.17;;;6.50;99.90;;;;;;4994307;28;20224;-67
2022/11/28 06:06:19;;;;;;;11.67;9.20;;;6.50;99.90;;;;;;4995567;28;20589;-67
2022/11/28 06:08:46;;;;;;;10.97;9.80;;;6.50;99.90;;;;;;4995316;28;20208;-67
2022/11/28 06:11:13;;;;;;;10.37;9.33;;;6.50;99.90;;;;;;4995141;28;20549;-67
2022/11/28 06:13:40;;;;;;;10.37;8.73;;;6.50;99.90;;;;;;4994039;28;20205;-67
2022/11/28 06:16:07;;;;;;;10.60;9.70;;;6.50;99.90;;;;;;4994569;28;20209;-67
2022/11/28 06:18:33;;;;;;;10.50;9.50;;;6.50;99.90;;;;;;4994591;28;20224;-66
2022/11/28 06:21:01;;;;;;;11.03;9.73;;;6.50;99.90;;;;;;4994655;28;20207;-66
2022/11/28 06:23:27;;;;;;;10.17;9.27;;;6.50;99.90;;;;;;4994173;28;20180;-66
2022/11/28 06:25:52;;;;;;;15.97;9.67;;;6.50;99.90;;;;;;4995179;28;20533;-66
2022/11/28 06:28:18;;;;;;;9.40;8.60;;;6.50;99.90;;;;;;4994770;28;20291;-66
2022/11/28 06:30:44;;;;;;;10.23;9.33;;;6.40;99.90;;;;;;4994815;28;20385;-66
2022/11/28 06:33:09;;;;;;;9.87;9.07;;;6.40;99.90;;;;;;4994765;28;20188;-66
2022/11/28 06:35:35;;;;;;;11.40;10.27;;;6.40;99.90;;;;;;4983435;28;20205;-66
2022/11/28 06:38:00;;;;;;;10.87;9.97;;;6.50;99.90;;;;;;4974697;28;20203;-67
2022/11/28 06:40:26;;;;;;;10.07;9.17;;;6.50;99.90;;;;;;4975439;28;20637;-66
2022/11/28 06:42:51;;;;;;;11.67;10.33;;;6.50;99.90;;;;;;4979255;28;20180;-66
2022/11/28 06:45:17;;;;;;;10.23;9.33;;;6.50;99.90;;;;;;4994818;28;20203;-66
2022/11/28 06:47:43;;;;;;;10.23;9.30;;;6.50;99.90;;;;;;4994276;28;20220;-66
2022/11/28 06:50:09;;;;;;;9.63;8.67;;;6.50;99.90;;;;;;4994396;28;20200;-66
2022/11/28 06:52:35;;;;;;;11.20;9.27;;;6.50;99.90;;;;;;4994410;28;20395;-66
2022/11/28 06:55:00;;;;;;;9.47;8.67;;;6.60;99.90;;;;;;4975213;28;20216;-67
2022/11/28 06:57:26;;;;;;;10.00;9.20;;;6.60;99.90;;;;;;4973914;28;20193;-66
2022/11/28 06:59:52;;;;;;;10.73;9.73;;;6.60;99.90;;;;;;4991918;28;20236;-66
2022/11/28 07:02:17;;;;;;;11.20;10.10;;;6.70;99.90;;;;;;4989697;28;20525;-66
2022/11/28 07:04:44;;;;;;;10.60;9.60;;;6.70;99.90;;;;;;4994135;28;20184;-67
2022/11/28 07:07:09;;;;;;;10.47;9.47;;;6.70;99.90;;;;;;4994267;28;20816;-67
2022/11/28 07:09:35;;;;;;;12.07;10.80;;;6.70;99.90;;;;;;4994037;28;20282;-67
2022/11/28 07:12:00;;;;;;;11.33;10.33;;;6.70;99.90;;;;;;4994047;28;20270;-66
2022/11/28 07:14:26;;;;;;;10.60;9.70;;;6.80;99.90;;;;;;4994098;28;20204;-67
2022/11/28 07:16:52;;;;;;;10.27;9.43;;;6.80;99.90;;;;;;4993875;28;20169;-67
2022/11/28 07:19:22;;;;;;;10.63;9.77;;;6.80;99.90;;;;;;4994054;28;20195;-66
2022/11/28 07:21:48;;;;;;;12.10;10.90;;;6.80;99.90;;;;;;4993647;28;20165;-67
2022/11/28 07:24:15;;;;;;;10.73;9.67;;;6.90;99.90;;;;;;4990954;28;20187;-67
2022/11/28 07:26:41;;;;;;;13.53;11.43;;;6.80;99.90;;;;;;4993507;28;20566;-67
2022/11/28 07:29:08;;;;;;;10.73;9.63;;;6.80;99.90;;;;;;5017564;23;20220;-67
2022/11/28 07:31:36;;;;;;;10.57;9.57;;;6.90;99.90;;;;;;4993599;28;20575;-67
2022/11/28 07:34:04;;;;;;;13.20;8.77;;;6.80;99.90;;;;;;4992073;28;20213;-67
2022/11/28 07:36:30;;;;;;;9.23;8.53;;;6.80;99.90;;;;;;4992294;28;20188;-67
2022/11/28 07:38:58;;;;;;;11.07;10.17;;;6.80;99.90;;;;;;4993452;28;20196;-68
2022/11/28 07:41:24;;;;;;;11.10;10.20;;;6.80;99.90;;;;;;4993238;28;20658;-67
2022/11/28 07:43:56;;;;;;;13.77;9.93;;;6.80;99.90;;;;;;4993370;28;20173;-67
2022/11/28 07:46:22;;;;;;;14.23;10.20;;;6.80;99.90;;;;;;4993527;28;20239;-68
2022/11/28 07:48:48;;;;;;;10.93;9.90;;;6.80;99.90;;;;;;4991810;28;20616;-68
2022/11/28 07:51:20;;;;;;;11.80;10.90;;;6.80;99.90;;;;;;4991900;28;20185;-67
2022/11/28 07:53:46;;;;;;;11.40;10.40;;;6.80;99.90;;;;;;4991762;28;20204;-67
2022/11/28 07:56:15;;;;;;;11.63;10.43;;;6.80;99.90;;;;;;4991921;28;20559;-67
2022/11/28 07:58:43;;;;;;;11.77;9.70;;;6.70;99.90;;;;;;4992855;28;20728;-67
2022/11/28 08:01:17;;;;;;;11.63;9.53;;;6.70;99.90;;;;;;4993537;28;20169;-67
2022/11/28 08:03:44;;;;;;;12.10;10.40;;;6.70;99.90;;;;;;4991643;28;20180;-67
2022/11/28 08:06:10;;;;;;;11.13;9.97;;;6.70;99.90;;;;;;4993111;28;20206;-67
2022/11/28 08:08:36;;;;;;;10.60;9.53;;;6.60;99.90;;;;;;4992624;28;20204;-67
2022/11/28 08:11:04;;;;;;;9.63;8.73;;;6.60;99.90;;;;;;4992693;28;20177;-67
2022/11/28 08:13:30;;;;;;;13.57;10.13;;;6.60;99.90;;;;;;4992564;28;20259;-67
2022/11/28 08:15:56;;;;;;;11.67;10.57;;;6.60;99.90;;;;;;4991701;28;20268;-67
2022/11/28 08:18:22;;;;;;;14.77;10.33;;;6.70;99.90;;;;;;4992322;28;20207;-67
2022/11/28 08:20:47;;;;;;;11.47;9.90;;;6.70;99.90;;;;;;4992462;28;20184;-67
2022/11/28 08:23:13;;;;;;;10.23;9.23;;;6.70;99.90;;;;;;4991347;28;20263;-67
2022/11/28 08:25:39;;;;;;;13.80;9.67;;;6.70;99.90;;;;;;4991373;28;20642;-67
2022/11/28 08:28:04;;;;;;;11.00;10.03;;;6.70;99.90;;;;;;4992493;28;20216;-67
2022/11/28 08:30:30;;;;;;;11.90;10.80;;;6.70;99.90;;;;;;4992467;28;20255;-68
2022/11/28 08:32:56;;;;;;;11.10;9.97;;;6.70;99.90;;;;;;4992622;28;20179;-68
2022/11/28 08:35:22;;;;;;;12.07;11.07;;;6.70;99.90;;;;;;4992338;28;20641;-67
2022/11/28 08:37:47;;;;;;;10.87;9.90;;;6.80;99.90;;;;;;4992106;28;20701;-68
2022/11/28 08:40:13;;;;;;;11.33;10.33;;;6.80;99.90;;;;;;4992144;28;20228;-68
2022/11/28 08:42:39;;;;;;;11.03;9.73;;;6.80;99.90;;;;;;4992144;28;20173;-68
2022/11/28 08:45:06;;;;;;;11.67;10.50;;;6.80;99.90;;;;;;4992452;28;20211;-68
2022/11/28 08:47:31;;;;;;;12.17;11.07;;;6.90;99.90;;;;;;4990435;28;20250;-68
2022/11/28 08:49:57;;;;;;;10.57;9.47;;;6.90;99.90;;;;;;4992126;28;20263;-67
2022/11/28 08:52:24;;;;;;;10.53;9.53;;;6.90;99.90;;;;;;4990752;28;20192;-68
2022/11/28 08:54:49;;;;;;;11.87;10.77;;;6.90;99.90;;;;;;4990928;28;20746;-68
2022/11/28 08:57:15;;;;;;;12.47;11.37;;;6.90;99.90;;;;;;4991963;28;20252;-68
2022/11/28 08:59:40;;;;;;;11.30;10.20;;;6.90;99.90;;;;;;4991935;28;20180;-67
2022/11/28 09:02:10;;;;;;;11.57;9.83;;;6.90;99.90;;;;;;4992266;28;20161;-68
2022/11/28 09:04:36;;;;;;;11.53;10.40;;;7.00;99.90;;;;;;4991936;28;20184;-68
2022/11/28 09:07:02;;;;;;;13.03;11.80;;;7.00;99.90;;;;;;4990981;28;20184;-68
2022/11/28 09:09:28;;;;;;;12.27;11.00;;;7.00;99.90;;;;;;4991740;28;20181;-68
2022/11/28 09:11:53;;;;;;;11.90;10.90;;;7.10;99.90;;;;;;4992478;28;20259;-68
2022/11/28 09:14:19;;;;;;;12.93;10.20;;;7.10;99.90;;;;;;4991320;28;20208;-68
2022/11/28 09:16:45;;;;;;;14.10;10.50;;;7.10;99.90;;;;;;4990480;28;20316;-68
2022/11/28 09:19:10;;;;;;;13.77;10.57;;;7.10;99.90;;;;;;4990316;28;20243;-68
2022/11/28 09:21:36;;;;;;;10.97;10.07;;;7.10;99.90;;;;;;4992524;28;20252;-68
2022/11/28 09:24:02;;;;;;;11.33;10.40;;;7.10;99.90;;;;;;4998188;28;20181;-68
2022/11/28 09:26:28;;;;;;;11.37;10.17;;;7.20;99.90;;;;;;4998805;28;20632;-68
2022/11/28 09:28:54;;;;;;;11.90;10.67;;;7.20;99.90;;;;;;4998133;28;20216;-68
2022/11/28 09:31:20;;;;;;;12.87;11.67;;;7.20;99.90;;;;;;4996163;28;20593;-68
2022/11/28 09:33:48;;;;;;;11.87;9.57;;;7.20;99.90;;;;;;4997704;28;20204;-68
2022/11/28 09:36:17;;;;;;;12.37;10.33;;;7.20;99.90;;;;;;4997151;28;20164;-68
2022/11/28 09:38:43;;;;;;;11.90;10.70;;;7.20;99.90;;;;;;4996666;28;20197;-68
2022/11/28 09:41:35;;;;;;;11.07;10.00;;;7.20;99.90;;;;;;4998220;28;20175;-68
2022/11/28 09:44:15;;;;;;;11.40;10.27;;;7.30;99.90;;;;;;4982327;28;20203;-66
2022/11/28 09:46:42;;;;;;;13.87;11.27;;;7.20;99.90;;;;;;4995698;28;20184;-66
2022/11/28 09:49:19;;;;;;;10.60;9.43;;;7.30;99.90;;;;;;4996547;28;20583;-66
2022/11/28 09:51:57;;;;;;;12.97;10.63;;;7.30;99.90;;;;;;4996850;28;20609;-65
2022/11/28 09:54:33;;;;;;;11.63;10.03;;;7.30;99.90;;;;;;4993875;28;20212;-67
2022/11/28 09:57:00;;;;;;;11.27;10.27;;;7.40;99.90;;;;;;4998128;28;20211;-67
2022/11/28 09:59:28;;;;;;;14.63;11.33;;;7.40;99.90;;;;;;4996612;28;20279;-66
2022/11/28 10:01:57;;;;;;;11.57;10.63;;;7.40;99.90;;;;;;4993422;28;20265;-67
2022/11/28 10:04:40;;;;;;;14.23;11.03;;;7.50;99.90;;;;;;4998008;28;20177;-66
2022/11/28 10:07:26;;;;;;;12.63;10.93;;;7.50;99.90;;;;;;4996623;28;20219;-67
2022/11/28 10:10:18;;;;;;;12.27;10.57;;;7.60;99.90;;;;;;4997603;28;20180;-66
2022/11/28 10:13:12;;;;;;;10.53;9.47;;;7.60;99.90;;;;;;4997881;28;20176;-67
2022/11/28 10:16:00;;;;;;;10.50;9.60;;;7.60;99.90;;;;;;4997582;28;20686;-67
2022/11/28 10:18:31;;;;;;;12.47;10.33;;;7.60;99.90;;;;;;4997735;28;20193;-67
2022/11/28 10:21:02;;;;;;;11.07;9.87;;;7.70;99.90;;;;;;4996642;28;20169;-67
2022/11/28 10:23:39;;;;;;;12.73;11.37;;;7.70;99.90;;;;;;4998033;28;20259;-67
2022/11/28 10:26:10;;;;;;;10.73;9.63;;;7.70;99.90;;;;;;4998066;28;20205;-67
2022/11/28 10:28:40;;;;;;;10.70;9.80;;;7.80;99.90;;;;;;4996394;28;20212;-67
2022/11/28 10:31:09;;;;;;;13.53;10.47;;;7.80;99.90;;;;;;4997717;28;20173;-66
2022/11/28 10:34:06;;;;;;;10.40;9.07;;;7.80;99.90;;;;;;4995518;28;20183;-66
2022/11/28 10:37:02;;;;;;;10.40;9.60;;;7.80;99.90;;;;;;4971261;28;20181;-67
2022/11/28 10:39:28;;;;;;;12.23;10.97;;;7.90;99.90;;;;;;4994680;28;20181;-66
2022/11/28 10:42:13;;;;;;;16.07;14.73;;;7.90;99.90;;;;;;4994888;28;20722;-67
2022/11/28 10:45:00;;;;;;;15.47;11.77;;;7.90;99.90;;;;;;4992938;28;20256;-67
2022/11/28 10:47:25;;;;;;;11.20;10.10;;;7.90;99.90;;;;;;4994660;28;20193;-67
2022/11/28 10:50:29;;;;;;;12.97;11.70;;;7.90;99.90;;;;;;4993121;28;20239;-67
2022/11/28 10:53:27;;;;;;;12.80;11.03;;;7.90;99.90;;;;;;4994656;28;20633;-67
2022/11/28 10:56:12;;;;;;;12.50;9.93;;;8.00;99.90;;;;;;4992305;28;20200;-67
2022/11/28 10:58:54;;;;;;;13.27;11.17;;;8.00;99.90;;;;;;4994482;28;20223;-67
2022/11/28 11:01:19;;;;;;;11.17;10.17;;;8.10;99.90;;;;;;4993018;28;20207;-67
2022/11/28 11:03:46;;;;;;;11.83;10.70;;;8.10;99.90;;;;;;4994190;28;20177;-67
2022/11/28 11:06:12;;;;;;;11.17;10.07;;;8.20;99.90;;;;;;4993085;28;20176;-67
2022/11/28 11:08:39;;;;;;;12.80;11.33;;;8.20;99.90;;;;;;4992685;28;20212;-67
2022/11/28 11:11:22;;;;;;;11.03;9.90;;;8.20;99.90;;;;;;4993514;28;20184;-67
2022/11/28 11:14:05;;;;;;;11.73;10.37;;;8.20;99.90;;;;;;4994197;28;20188;-67
2022/11/28 11:16:52;;;;;;;12.33;11.13;;;8.20;99.90;;;;;;4974644;28;20174;-67
2022/11/28 11:19:28;;;;;;;13.17;9.50;;;8.20;99.90;;;;;;4977337;28;20709;-66
2022/11/28 11:22:00;;;;;;;12.30;10.43;;;8.20;99.90;;;;;;4994202;28;20192;-67
2022/11/28 11:24:26;;;;;;;11.27;10.27;;;8.20;99.90;;;;;;4992488;28;20582;-67
2022/11/28 11:26:52;;;;;;;10.83;9.90;;;8.20;99.90;;;;;;4994163;28;20384;-67
2022/11/28 11:29:21;;;;;;;13.37;10.80;;;8.20;99.90;;;;;;4993390;28;20303;-67
2022/11/28 11:31:51;;;;;;;11.13;10.10;;;8.10;99.90;;;;;;4992483;28;20180;-67
2022/11/28 11:34:20;;;;;;;10.30;9.30;;;8.10;99.90;;;;;;4993555;28;20280;-67
2022/11/28 11:36:46;;;;;;;15.60;10.73;;;8.10;99.90;;;;;;4993889;28;20666;-67
2022/11/28 11:39:11;;;;;;;10.53;9.53;;;8.10;99.90;;;;;;4993442;28;20197;-67
2022/11/28 11:41:43;;;;;;;11.60;10.30;;;8.10;99.90;;;;;;4992369;28;20176;-67
2022/11/28 11:44:17;;;;;;;12.03;10.73;;;8.00;99.90;;;;;;4992266;28;20203;-67
2022/11/28 11:46:51;;;;;;;11.07;10.10;;;8.00;99.90;;;;;;4993400;28;20697;-67
2022/11/28 11:49:34;;;;;;;11.37;10.27;;;8.00;99.90;;;;;;4993149;28;20201;-67
2022/11/28 11:52:12;;;;;;;11.47;10.00;;;8.00;99.90;;;;;;4992198;28;20234;-66
2022/11/28 11:54:51;;;;;;;15.40;10.23;;;7.90;99.90;;;;;;4993370;28;20275;-67
2022/11/28 11:57:18;;;;;;;10.47;9.60;;;7.90;99.90;;;;;;4993440;28;20165;-67
2022/11/28 12:00:08;;;;;;;11.20;10.10;;;7.90;99.90;;;;;;4992780;28;20599;-68
2022/11/28 12:02:46;;;;;;;12.10;10.90;;;8.00;99.90;;;;;;4993236;28;20177;-67
2022/11/28 12:05:18;;;;;;;11.80;10.57;;;8.00;99.90;;;;;;4993091;28;20181;-68
2022/11/28 12:07:59;;;;;;;11.63;10.53;;;8.00;99.90;;;;;;4993149;28;20220;-67
2022/11/28 12:10:31;;;;;;;11.57;10.43;;;8.00;99.90;;;;;;4991257;28;20177;-67
2022/11/28 12:12:56;;;;;;;18.03;10.77;;;8.00;99.90;;;;;;4992058;28;20187;-67
2022/11/28 12:15:37;;;;;;;14.30;12.00;;;8.00;99.90;;;;;;4992652;28;20578;-68
2022/11/28 12:18:20;;;;;;;12.47;10.43;;;8.00;99.90;;;;;;4990799;28;20732;-67
2022/11/28 12:21:07;;;;;;;11.33;10.20;;;7.90;99.90;;;;;;4991312;28;20169;-68
2022/11/28 12:23:58;;;;;;;12.97;11.07;;;7.90;99.90;;;;;;4991938;28;20175;-69
2022/11/28 12:26:48;;;;;;;14.43;11.63;;;8.00;99.90;;;;;;4992249;28;20272;-68
2022/11/28 12:29:28;;;;;;;12.77;11.47;;;8.00;99.90;;;;;;4991363;28;20240;-68
2022/11/28 12:32:06;;;;;;;13.60;11.70;;;8.10;99.90;;;;;;4973004;28;20540;-68
2022/11/28 12:35:05;;;;;;;13.43;10.93;;;8.10;99.90;;;;;;4988605;28;20196;-68
2022/11/28 12:37:44;;;;;;;15.53;10.43;;;8.20;99.90;;;;;;4990555;28;20201;-68
2022/11/28 12:40:28;;;;;;;12.37;10.57;;;8.20;99.90;;;;;;4990540;28;20177;-68
2022/11/28 12:43:11;;;;;;;13.40;12.00;;;8.20;99.90;;;;;;4992216;28;20177;-68
2022/11/28 12:45:42;;;;;;;12.23;11.00;;;8.20;99.90;;;;;;4991163;28;20520;-68
2022/11/28 12:48:37;;;;;;;14.10;10.87;;;8.20;99.90;;;;;;4992146;28;20567;-67
2022/11/28 12:51:24;;;;;;;12.07;10.83;;;8.10;99.90;;;;;;4980689;28;20201;-68
2022/11/28 12:54:10;;;;;;;12.30;11.00;;;8.20;99.90;;;;;;4990042;28;20184;-68
2022/11/28 12:57:06;;;;;;;12.60;11.37;;;8.20;99.90;;;;;;4991580;28;20181;-68
2022/11/28 12:59:50;;;;;;;12.70;11.47;;;8.30;99.90;;;;;;4971079;28;20556;-68
2022/11/28 13:02:25;;;;;;;14.63;12.27;;;8.30;99.90;;;;;;4976643;28;20172;-68
2022/11/28 13:05:05;;;;;;;15.17;13.67;;;8.30;99.90;;;;;;4992157;28;20176;-68
2022/11/28 13:07:53;;;;;;;16.67;11.87;;;8.30;99.90;;;;;;4991663;28;20291;-68
2022/11/28 13:10:38;;;;;;;12.83;11.63;;;8.30;99.90;;;;;;4990377;28;20180;-68